TimeEST,TemperatureF,Dew PointF,Humidity,Sea Level PressureIn,VisibilityMPH,Wind Direction,Wind SpeedMPH,Gust SpeedMPH,PrecipitationIn,Events,Conditions,WindDirDegrees,DateUTC
12:56 AM,27.0,19.9,75,30.40,10.0,WSW,3.5,-,N/A,,Clear,240,2013-12-11 05:56:00
1:56 AM,25.0,19.9,81,30.41,10.0,SSW,5.8,-,N/A,,Clear,200,2013-12-11 06:56:00
2:56 AM,23.0,19.0,85,30.41,8.0,SE,4.6,-,N/A,,Clear,130,2013-12-11 07:56:00
3:56 AM,21.9,19.0,89,30.41,7.0,ESE,5.8,-,N/A,,Clear,120,2013-12-11 08:56:00
4:56 AM,23.0,19.0,85,30.40,8.0,SSE,4.6,-,N/A,,Partly Cloudy,150,2013-12-11 09:56:00
5:56 AM,21.0,18.0,88,30.40,6.0,SE,6.9,-,N/A,,Scattered Clouds,140,2013-12-11 10:56:00
6:56 AM,21.0,18.0,88,30.41,6.0,Calm,Calm,-,N/A,,Scattered Clouds,0,2013-12-11 11:56:00
7:56 AM,19.9,18.0,92,30.41,5.0,SE,5.8,-,N/A,,Scattered Clouds,140,2013-12-11 12:56:00
8:56 AM,23.0,19.0,85,30.40,6.0,SE,3.5,-,N/A,,Partly Cloudy,130,2013-12-11 13:56:00
9:56 AM,28.9,21.9,75,30.43,6.0,Calm,Calm,-,N/A,,Haze,0,2013-12-11 14:56:00
10:56 AM,30.9,24.1,76,30.43,9.0,SSW,10.4,-,N/A,,Clear,210,2013-12-11 15:56:00
11:56 AM,34.0,24.1,67,30.40,10.0,SW,8.1,-,N/A,,Partly Cloudy,230,2013-12-11 16:56:00
12:56 PM,37.0,24.1,59,30.38,10.0,West,12.7,18.4,N/A,,Partly Cloudy,270,2013-12-11 17:56:00
1:56 PM,37.0,24.1,59,30.35,10.0,WSW,15.0,-,N/A,,Scattered Clouds,240,2013-12-11 18:56:00
2:56 PM,37.9,25.0,60,30.35,10.0,WSW,16.1,-,N/A,,Scattered Clouds,250,2013-12-11 19:56:00
3:56 PM,37.0,25.0,62,30.38,10.0,West,18.4,-,N/A,,Scattered Clouds,280,2013-12-11 20:56:00
4:56 PM,35.1,25.0,67,30.40,10.0,West,11.5,-,N/A,,Mostly Cloudy,270,2013-12-11 21:56:00
5:56 PM,33.1,21.9,64,30.44,10.0,WNW,12.7,-,N/A,,Mostly Cloudy,300,2013-12-11 22:56:00
6:19 PM,32.0,21.2,64,30.44,10.0,WNW,15.0,-,N/A,,Overcast,300,2013-12-11 23:19:00
6:56 PM,30.9,21.0,67,30.47,10.0,NW,10.4,-,N/A,,Overcast,310,2013-12-11 23:56:00
7:56 PM,30.9,19.0,61,30.48,10.0,WNW,10.4,-,N/A,,Overcast,290,2013-12-12 00:56:00
8:56 PM,28.9,19.9,69,30.52,10.0,NW,12.7,-,N/A,,Overcast,320,2013-12-12 01:56:00
9:56 PM,26.1,17.1,69,30.53,10.0,NW,9.2,-,N/A,,Mostly Cloudy,310,2013-12-12 02:56:00
10:56 PM,24.1,16.0,71,30.55,10.0,WNW,11.5,-,N/A,,Mostly Cloudy,300,2013-12-12 03:56:00
11:56 PM,21.9,14.0,72,30.57,10.0,WNW,9.2,-,N/A,,Mostly Cloudy,300,2013-12-12 04:56:00